• Join FlightAware (Why Join?)
  • Login
  • US Flag 
07:36PM EST


 

Airport Tracker/Info


-or-


 

Live Flight TrackerFlight Track Log ✈ XOJ552 ✈ 23-Oct-2013 ✈ KCLE - KTZR

Flight Track Log - Related Links

Times and Time Zones

All times are in EDT time to prevent confusion due to time zone crossing. See the XOJ552 flight status page for this flight to view local times or setup timezone preferences in your user account.

Time Position Orientation Groundspeed Altitude Reporting Facility
EDT Latitude Longitude Course Direction KTS MPH feet Rate Location/Type
01:54PM 41.4164 -81.8042 89° East 220 253 3,400  Level Cleveland Center
01:54PM 41.4150 -81.8014 124° Southeast 217 250 3,500 1,740 Climbing Cleveland Center
01:55PM 41.4181 -81.7178 87° East 325 374 5,000 1,440 Climbing Cleveland Center
01:55PM 41.4161 -81.7000 98° East 271 312 5,000 2,160 Level Cleveland Center
01:56PM 41.4192 -81.5961 88° East 273 314 7,800 3,240 Climbing Cleveland Center
01:57PM 41.3917 -81.4900 109° East 327 376 11,800 1,980 Climbing Cleveland Center
01:58PM 41.3125 -81.5158 194° South 314 361 12,000 60 Climbing Cleveland Center
01:59PM 41.2417 -81.6058 224° Southwest 294 338 12,000  Level Cleveland Center
02:00PM 41.1833 -81.6839 225° Southwest 299 344 12,000  Level Cleveland Center
02:01PM 41.1208 -81.7642 224° Southwest 325 374 12,000  Level Cleveland Center
02:02PM 41.0525 -81.8531 224° Southwest 338 389 12,000  Level Cleveland Center
02:03PM 40.9736 -81.9556 224° Southwest 337 388 12,000 -60 Level Cleveland Center
02:04PM 40.9058 -82.0425 224° Southwest 336 387 11,900 -240 Descending Cleveland Center
02:05PM 40.8331 -82.1250 221° Southwest 340 391 11,600 -840 Descending Indianapolis Center
02:06PM 40.7603 -82.2058 220° Southwest 339 390 10,300 -840 Descending Indianapolis Center
02:07PM 40.6881 -82.2831 219° Southwest 334 384 10,000 -180 Descending Indianapolis Center
02:08PM 40.6153 -82.3650 221° Southwest 340 391 10,000  Level Indianapolis Center
02:09PM 40.5433 -82.4442 220° Southwest 336 387 10,000  Level Indianapolis Center
02:10PM 40.5028 -82.4900 221° Southwest 333 383 10,000  Level Indianapolis Center
02:10PM 40.4714 -82.5231 219° Southwest 334 384 10,000 -120 Level Indianapolis Center
02:11PM 40.4308 -82.5667 219° Southwest 333 383 9,900  Descending Indianapolis Center
02:11PM 40.3989 -82.6008 219° Southwest 334 384 10,000  Climbing Indianapolis Center
02:12PM 40.3586 -82.6461 221° Southwest 336 387 9,900  Descending Indianapolis Center
02:12PM 40.3261 -82.6797 218° Southwest 336 387 10,000  Climbing Indianapolis Center
02:13PM 40.2864 -82.7225 219° Southwest 337 388 9,900  Descending Indianapolis Center
02:13PM 40.2531 -82.7606 221° Southwest 341 392 10,000 -120 Climbing Indianapolis Center
02:14PM 40.2200 -82.8050 226° Southwest 314 361 9,800 -1,020 Descending Indianapolis Center
02:14PM 40.1956 -82.8417 229° Southwest 291 335 9,000 -1,980 Descending Indianapolis Center
02:15PM 40.1614 -82.8917 228° Southwest 268 308 7,600 -1,980 Descending Indianapolis Center
02:15PM 40.1453 -82.9156 229° Southwest 276 318 7,000 -1,620 Descending Indianapolis Center
02:16PM 40.1125 -82.9631 228° Southwest 265 305 6,000 -1,020 Descending Indianapolis Center
02:17PM 40.0850 -83.0019 227° Southwest 269 310 6,000 -120 Level Indianapolis Center
02:17PM 40.0639 -83.0347 230° Southwest 267 307 5,900  Descending Indianapolis Center
02:18PM 40.0356 -83.0753 228° Southwest 269 310 6,000  Climbing Indianapolis Center
02:18PM 40.0081 -83.1131 226° Southwest 274 315 5,900  Descending Indianapolis Center
02:19PM 39.9844 -83.1492 230° Southwest 271 312 6,000 -720 Climbing Indianapolis Center
02:19PM 39.9589 -83.1869 229° Southwest 272 313 5,200 -1,680 Descending Indianapolis Center
02:20PM 39.9339 -83.2206 226° Southwest 271 312 4,300 -1,980 Descending Indianapolis Center
02:20PM 39.9078 -83.2578 228° Southwest 259 298 3,200 -1,260 Descending Indianapolis Center
02:21PM 39.8861 -83.2883 227° Southwest 263 303 3,000 -300 Descending Indianapolis Center
02:21PM 39.8558 -83.2956 190° South 218 251 2,900 -300 Descending Indianapolis Center
02:22PM 39.8425 -83.2633 118° Southeast 233 268 2,700 -480 Descending Indianapolis Center
02:22PM 39.8406 -83.2139 93° East 221 254 2,400 -540 Descending Indianapolis Center
02:23PM 39.8447 -83.1875 78° East 217 250 2,200 -840 Descending Indianapolis Center
02:23PM 39.8642 -83.1661 40° Northeast 140 161 1,600 -900 Descending Indianapolis Center
02:24PM 39.8817 -83.1525 31° Northeast 157 181 1,300 -360 Descending Indianapolis Center
02:25PM 39.9108 -83.1297 31° Northeast 151 174 1,100 -240 Descending Indianapolis Center